Hauptseite
METAR-TAF:

METAR-TAF

Flughäfen :

Flughafen Gibraltar

Gibraltar, Gibraltar

Breite: 36-09N, Länge: 005-21W, Höhe: 5 m

Beobachtung

Neuester Wetterbericht von vor 32 Minuten, um 04:50 UTC
Wind 3 kt aus West
Temperatur 13°C
Luftfeuchtigkeit 82%
Luftdruck 1014 hPa
Sichtweite 10 km oder mehr
keine Wolken unter 1500 m und keine Kumulonimbus oder Gewitterwolken

METAR: LXGB 190450Z 26003KT CAVOK 13/10 Q1014

Zeit: 07:22 (05:22 UTC)

Prognose

Neuester Wetterbericht von vor 12 Stunden und 34 Minuten, um 16:48 UTC
Gültige Prognose vom 18 um 18 UTC bis 18 um 22 UTC
Wind 13 kt aus West
Sichtweite 10 km oder mehr
Leicht bewölkt in der Höhe von 1800 ft
Aufgelockert bewölkt in der Höhe von 3000 ft
Wahrscheinlichkeit 30% :
Zeitweise
vom 18 um 18 UTC bis 18 um 22 UTC
Wind 15 kt aus West, Böen bis zu 25 kt

TAF: LXGB 181648Z 1818/1822 26013KT 9999 FEW018 SCT030 PROB30 TEMPO 1818/1822 26015G25KT

Wetterbeobachtungen und Prognosen von mehr als 4000 Flughäfen (METAR und TAF Bericht).

Die verfügbaren Stationen werden durch gelbe und rote Markierungen auf der Karte dargestellt.

Führen Sie die Maus auf sie, um den Namen der Station zu sehen.

Darauf klicken, um die Beobachtung von Wetterbeobachtungen und Prognosen zu sehen.

Um die Karte zu ändern : klicken Sie auf den grünen Tasten mit einem schwarzen Kreuz Zum Vergrößern, auf den grünen Button mit einem Gedankenstrich zu verkleinern, oder auf die grünen Pfeile für benachbarte Karten.


METAR-TAF: